Latest Weather Observations for Montague Island

IDN60801

Issued at 6:23 pm EST Saturday 9 May 2026 (issued every 10 minutes, with the page automatically refreshed every 10 minutes)

About weather observations | Map of weather stations | Latest weather observations for NSW | Other Formats
Station Details ID: 069017 Name: MONTAGUE ISLAND LIGHTHOUSE Lat: -36.25 Lon: 150.23 Height: 52.0 m
Data from the previous 72 hours. | See also: Recent months at Montague Island
Date/Time
EST
Temp
°C
App
Temp
°C
Dew
Point
°C
Rel
Hum
%
Delta-T
°C
Wind Press
QNH
hPa
Press
MSL
hPa
Rain since
9am
mm
Dir  Spd
km/h
Gust
km/h
Spd
kts
Gust
kts
09/06:00pm 17.4 16.1 9.1 58 4.3 NNW 6 7 3 4 1024.4 1024.4 0.0
09/05:30pm 17.4 15.9 8.5 56 4.6 N 6 9 3 5 1024.0 1024.0 0.0
09/05:00pm 17.6 16.0 8.2 54 4.8 NNW 6 9 3 5 1023.5 1023.4 0.0
09/04:30pm 17.8 16.8 8.9 56 4.6 NNE 4 7 2 4 1023.4 1023.3 0.0
09/04:00pm 17.8 16.3 8.4 54 4.8 NE 6 7 3 4 1023.3 1023.2 0.0
09/03:30pm 17.9 15.7 9.3 57 4.5 E 11 15 6 8 1023.0 1022.9 0.0
09/03:00pm 17.9 15.7 7.9 52 5.1 ESE 9 11 5 6 1023.2 1023.1 0.0
09/02:30pm 17.9 15.3 7.6 51 5.2 ESE 11 13 6 7 1023.3 1023.2 0.0
09/02:00pm 18.1 16.0 8.1 52 5.1 ESE 9 13 5 7 1023.3 1023.2 0.0
09/01:30pm 18.0 15.3 8.8 55 4.8 SSE 13 15 7 8 1023.5 1023.4 0.0
09/01:00pm 18.6 15.6 7.7 49 5.5 SW 13 19 7 10 1023.8 1023.8 0.0
09/12:30pm 19.2 15.9 7.9 48 5.8 WSW 15 20 8 11 1024.1 1024.1 0.0
09/12:00pm 18.4 14.2 7.5 49 5.5 WSW 19 24 10 13 1024.4 1024.4 0.0
09/11:30am 17.9 13.4 7.0 49 5.5 WSW 20 28 11 15 1024.8 1024.8 0.0
09/11:00am 17.9 13.5 7.6 51 5.2 WSW 20 28 11 15 1025.1 1025.1 0.0
09/10:30am 17.4 12.6 7.2 51 5.1 SW 22 32 12 17 1025.2 1025.2 0.0
09/10:00am 17.2 12.7 7.0 51 5.1 WSW 20 30 11 16 1025.2 1025.2 0.0
09/09:30am 17.3 12.9 7.6 53 4.9 WSW 20 26 11 14 1025.2 1025.2 0.0
09/09:00am 16.4 11.7 7.6 56 4.4 SW 22 28 12 15 1025.1 1025.1 0.0
09/08:30am 15.9 11.2 7.7 58 4.1 WSW 22 30 12 16 1024.9 1024.9 0.0
09/08:00am 15.4 9.9 7.7 60 3.8 WSW 26 33 14 18 1024.4 1024.4 0.0
09/07:30am 14.8 9.3 7.4 61 3.7 WSW 26 35 14 19 1024.2 1024.2 0.0
09/07:00am 14.4 8.5 7.5 63 3.4 WSW 28 35 15 19 1023.8 1023.8 0.0
09/06:30am 14.3 9.6 7.6 64 3.3 WSW 22 28 12 15 1023.5 1023.4 0.0
09/06:00am 14.5 8.9 7.3 62 3.5 WSW 26 33 14 18 1023.1 1023.0 0.0
09/05:30am 14.6 8.6 7.2 61 3.6 WSW 28 35 15 19 1022.8 1022.7 0.0
09/05:00am 14.7 8.5 7.7 63 3.5 WSW 30 37 16 20 1022.4 1022.3 0.0
09/04:30am 14.7 8.8 7.5 62 3.6 WSW 28 37 15 20 1022.1 1022.0 0.0
09/04:00am 14.8 9.6 7.1 60 3.8 WSW 24 33 13 18 1021.9 1021.8 0.0
09/03:30am 14.7 9.4 6.8 59 3.9 WSW 24 33 13 18 1021.8 1021.7 0.0
09/03:00am 14.7 9.1 7.0 60 3.8 WSW 26 32 14 17 1021.8 1021.7 0.0
09/02:30am 14.7 9.2 7.5 62 3.6 WSW 26 35 14 19 1021.8 1021.7 0.0
09/02:00am 15.0 10.0 8.0 63 3.5 WSW 24 33 13 18 1021.9 1021.8 0.0
09/01:30am 15.0 10.7 8.0 63 3.5 WSW 20 24 11 13 1021.8 1021.7 0.0
09/01:00am 15.2 11.3 8.7 65 3.3 WSW 19 22 10 12 1021.8 1021.7 0.0
09/12:30am 15.8 10.0 8.1 60 3.9 SW 28 37 15 20 1021.4 1021.3 0.0
09/12:00am 15.6 10.8 8.8 64 3.5 SSW 24 30 13 16 1021.3 1021.2 0.0
 
Date/Time
EST
Temp
°C
App
Temp
°C
Dew
Point
°C
Rel
Hum
%
Delta-T
°C
Wind Press
QNH
hPa
Press
MSL
hPa
Rain since
9am
mm
Dir  Spd
km/h
Gust
km/h
Spd
kts
Gust
kts
08/11:30pm 15.8 10.6 9.0 64 3.5 SSW 26 33 14 18 1021.2 1021.1 0.0
08/11:00pm 15.8 10.6 8.8 63 3.6 SSW 26 37 14 20 1021.1 1021.0 0.0
08/10:30pm 15.9 11.1 8.9 63 3.6 SSW 24 33 13 18 1021.3 1021.2 0.0
08/10:00pm 15.9 11.7 9.6 66 3.3 SSW 22 32 12 17 1021.2 1021.1 0.0
08/09:30pm 15.9 11.0 9.8 67 3.2 SSW 26 32 14 17 1021.0 1020.9 0.0
08/09:00pm 15.6 11.8 9.9 69 3.0 SSW 20 30 11 16 1020.8 1020.7 0.0
08/08:30pm 15.6 11.7 10.8 73 2.6 SSW 22 30 12 16 1020.7 1020.6 0.0
08/08:00pm 15.5 10.5 10.9 74 2.4 S 28 35 15 19 1020.3 1020.2 0.0
08/07:30pm 15.5 9.8 11.1 75 2.4 S 32 39 17 21 1020.0 1019.9 0.0
08/07:00pm 15.9 9.7 11.5 75 2.4 S 35 43 19 23 1019.7 1019.6 0.0
08/06:30pm 16.4 10.6 9.6 64 3.6 S 30 39 16 21 1018.9 1018.8 0.0
08/06:00pm 16.4 10.1 10.9 70 2.9 S 35 44 19 24 1018.3 1018.2 0.0
08/05:46pm 16.5 10.6 11.0 70 3.0 S 33 46 18 25 1018.1 1018.0 0.0
08/05:30pm 17.2 9.8 8.4 56 4.5 SW 37 43 20 23 1017.5 1017.4 0.0
08/05:00pm 17.4 10.0 8.3 55 4.7 SW 37 44 20 24 1017.2 1017.1 0.0
08/04:30pm 17.8 10.0 8.4 54 4.8 SW 39 50 21 27 1016.5 1016.4 0.0
08/04:00pm 17.9 9.2 7.6 51 5.2 SW 43 52 23 28 1016.0 1015.9 0.0
08/03:30pm 18.3 9.7 8.0 51 5.3 SW 43 52 23 28 1015.7 1015.6 0.0
08/03:00pm 18.1 7.0 7.8 51 5.2 SW 56 70 30 38 1015.1 1015.0 0.0
08/02:30pm 18.4 7.5 7.2 48 5.7 SW 54 67 29 36 1014.7 1014.6 0.0
08/02:02pm 18.9 8.6 8.0 49 5.6 SW 52 70 28 38 1014.4 1014.3 0.0
08/02:00pm 18.9 7.9 7.0 46 6.0 SW 54 70 29 38 1014.3 1014.2 0.0
08/01:30pm 19.3 8.4 7.1 45 6.2 WSW 54 72 29 39 1014.1 1014.0 0.0
08/01:01pm 19.3 7.9 6.8 44 6.3 SW 56 74 30 40 1013.8 1013.7 0.0
08/01:00pm 19.3 7.8 6.4 43 6.4 SW 56 74 30 40 1013.8 1013.7 0.0
08/12:30pm 19.4 8.0 7.5 46 6.1 SW 57 69 31 37 1013.8 1013.7 0.0
08/12:10pm 19.4 9.3 7.5 46 6.1 SW 50 69 27 37 1013.8 1013.7 0.0
08/12:00pm 19.7 10.9 7.1 44 6.4 SW 43 50 23 27 1014.0 1013.9 0.0
08/11:32am 19.4 12.4 6.8 44 6.4 SW 33 54 18 29 1014.1 1014.0 0.0
08/11:30am 19.6 12.7 6.4 42 6.6 SW 32 43 17 23 1014.3 1014.2 0.0
08/11:00am 19.7 14.3 6.4 42 6.7 SW 24 33 13 18 1014.4 1014.3 0.0
08/10:30am 19.6 14.3 7.0 44 6.4 WSW 24 35 13 19 1014.2 1014.1 0.0
08/10:00am 18.8 12.6 6.3 44 6.2 WSW 28 37 15 20 1014.4 1014.3 0.0
08/09:30am 18.8 13.4 6.3 44 6.2 W 24 33 13 18 1014.5 1014.4 0.0
08/09:00am 18.1 13.5 5.7 44 6.1 WNW 19 26 10 14 1014.5 1014.4 0.0
08/08:30am 16.9 14.7 6.1 49 5.3 W 7 17 4 9 1014.4 1014.3 0.0
08/08:00am 15.9 12.4 5.5 50 5.0 WNW 13 24 7 13 1014.0 1013.9 0.0
08/07:30am 15.6 9.8 4.3 47 5.3 WNW 24 35 13 19 1013.5 1013.4 0.0
08/07:00am 15.1 8.3 5.0 51 4.8 WNW 30 37 16 20 1013.2 1013.1 0.0
08/06:30am 14.8 7.4 4.8 51 4.7 WNW 33 43 18 23 1012.7 1012.7 0.0
08/06:00am 14.7 8.3 5.2 53 4.5 WNW 28 35 15 19 1012.6 1012.6 0.0
08/05:30am 14.2 8.4 4.2 51 4.6 WNW 24 30 13 16 1012.9 1012.9 0.0
08/05:00am 13.9 8.8 4.2 52 4.5 WNW 20 30 11 16 1012.8 1012.8 0.0
08/04:30am 13.4 6.3 3.5 51 4.5 WNW 30 37 16 20 1012.8 1012.8 0.0
08/04:00am 12.7 7.0 3.1 52 4.3 WNW 22 32 12 17 1013.2 1013.1 0.0
08/03:30am 12.8 8.7 4.3 56 3.9 NW 15 20 8 11 1013.5 1013.4 0.0
08/03:00am 13.0 7.3 3.1 51 4.4 WNW 22 30 12 16 1013.7 1013.6 0.0
08/02:30am 12.5 7.5 3.7 55 3.9 NW 19 24 10 13 1014.3 1014.2 0.0
08/02:00am 12.3 7.5 2.7 52 4.2 NW 17 22 9 12 1014.7 1014.6 0.0
08/01:30am 12.1 8.0 2.3 51 4.2 NW 13 19 7 10 1015.1 1015.0 0.0
08/01:00am 11.8 8.0 2.0 51 4.2 WNW 11 15 6 8 1015.6 1015.5 0.0
08/12:30am 11.6 7.8 1.8 51 4.2 WNW 11 15 6 8 1016.0 1015.9 0.0
08/12:00am 11.7 7.2 2.2 52 4.1 WNW 15 20 8 11 1016.2 1016.1 0.0
 
Date/Time
EST
Temp
°C
App
Temp
°C
Dew
Point
°C
Rel
Hum
%
Delta-T
°C
Wind Press
QNH
hPa
Press
MSL
hPa
Rain since
9am
mm
Dir  Spd
km/h
Gust
km/h
Spd
kts
Gust
kts
07/11:30pm 11.6 6.6 1.5 50 4.3 WSW 17 24 9 13 1016.6 1016.5 0.0
07/11:00pm 11.8 5.1 1.4 49 4.4 WSW 26 33 14 18 1016.9 1016.8 0.0
07/10:30pm 11.8 4.8 2.0 51 4.2 WSW 28 37 15 20 1017.2 1017.1 0.0
07/10:00pm 11.9 3.8 1.3 48 4.5 WSW 33 44 18 24 1017.4 1017.3 0.0
07/09:30pm 11.9 3.3 0.4 45 4.8 WSW 35 50 19 27 1017.4 1017.3 0.0
07/09:00pm 12.0 3.1 0.5 45 4.8 WSW 37 50 20 27 1017.0 1016.9 0.0
07/08:30pm 12.1 2.4 0.2 44 4.9 WSW 41 52 22 28 1016.6 1016.5 0.0
07/08:00pm 11.9 2.5 0.1 44 4.8 WSW 39 50 21 27 1016.7 1016.6 0.0
07/07:30pm 12.1 1.0 0.2 44 4.9 WSW 48 57 26 31 1016.2 1016.1 0.0
07/07:14pm 12.2 2.5 0.6 45 4.8 WSW 41 59 22 32 1016.3 1016.2 0.0
07/07:00pm 12.2 1.8 -0.6 41 5.2 WSW 44 59 24 32 1016.2 1016.1 0.0
07/06:30pm 12.4 1.0 0.5 44 5.0 WSW 50 61 27 33 1015.6 1015.5 0.0
07/06:07pm 12.4 2.3 0.5 44 5.0 WSW 43 63 23 34 1015.6 1015.5 0.0
07/06:00pm 12.3 2.5 -0.2 42 5.1 WSW 41 50 22 27 1015.6 1015.5 0.0
07/05:30pm 12.6 1.4 -0.6 40 5.4 WSW 48 57 26 31 1015.1 1015.0 0.0
07/05:00pm 13.0 0.8 0.1 41 5.4 WSW 54 74 29 40 1014.7 1014.6 0.0
07/04:38pm 13.2 2.5 -0.1 40 5.5 WSW 46 70 25 38 1014.4 1014.3 0.0
07/04:30pm 13.4 4.6 1.4 44 5.2 WSW 37 48 20 26 1014.5 1014.4 0.0
07/04:00pm 13.6 2.2 0.6 41 5.5 SW 50 61 27 33 1014.4 1014.3 0.0
07/03:30pm 13.7 2.7 1.0 42 5.4 WSW 48 70 26 38 1014.3 1014.2 0.0
07/03:13pm 13.6 3.6 1.9 45 5.1 SW 44 69 24 37 1014.1 1014.0 0.0
07/03:00pm 13.8 3.0 2.1 45 5.1 SW 48 59 26 32 1014.1 1014.0 0.0
07/02:30pm 13.1 2.3 1.8 46 4.9 SW 48 63 26 34 1013.7 1013.6 0.0
07/02:20pm 13.1 2.3 2.1 47 4.8 SW 48 69 26 37 1013.7 1013.6 0.0
07/02:00pm 13.2 2.4 2.1 47 4.8 SW 48 59 26 32 1013.6 1013.5 0.0
07/01:32pm 13.8 1.5 2.1 45 5.1 SW 56 74 30 40 1013.1 1013.0 0.0
07/01:30pm 13.9 1.7 2.5 46 5.0 SW 56 70 30 38 1013.1 1013.0 0.0
07/01:00pm 14.2 1.9 2.1 44 5.3 SW 56 69 30 37 1012.9 1012.9 0.0
07/12:30pm 14.1 2.2 2.0 44 5.3 WSW 54 72 29 39 1013.2 1013.1 0.0
07/12:05pm 13.9 3.0 1.5 43 5.4 WSW 48 67 26 36 1012.9 1012.9 0.0
07/12:00pm 13.8 3.3 1.5 43 5.3 WSW 46 61 25 33 1013.1 1013.0 0.0
07/11:43am 13.7 5.0 2.0 45 5.1 WSW 37 59 20 32 1013.3 1013.2 0.0
07/11:30am 13.5 4.7 1.2 43 5.3 SW 37 56 20 30 1013.7 1013.6 0.0
07/11:21am 13.4 5.0 1.4 44 5.2 WSW 35 56 19 30 1013.9 1013.8 0.0
07/11:00am 13.2 3.9 2.7 49 4.6 SW 41 57 22 31 1013.9 1013.8 0.0
07/10:36am 13.5 6.2 2.7 48 4.8 WSW 30 50 16 27 1013.7 1013.6 0.0
07/10:30am 13.3 7.5 2.2 47 4.9 SW 22 33 12 18 1013.9 1013.8 0.0
07/10:00am 12.1 5.3 3.3 55 3.9 SW 28 35 15 19 1013.8 1013.7 0.0
07/09:30am 10.1 2.3 2.7 60 3.2 WSW 33 44 18 24 1013.4 1013.3 0.0
07/09:00am 10.2 1.5 4.1 66 2.7 WSW 39 54 21 29 1013.3 1013.2 1.0
07/08:30am 9.0 -0.3 4.8 75 1.9 SW 43 54 23 29 1013.5 1013.4 1.0
07/08:00am 7.9 -2.3 5.4 84 1.1 SW 48 59 26 32 1013.4 1013.3 0.8
07/07:30am 8.2 -4.0 5.7 84 1.1 SW 59 80 32 43 1012.7 1012.7 0.2
07/07:00am 10.5 -1.6 5.9 73 2.1 SW 59 82 32 44 1011.2 1011.2 0.0
07/06:59am 10.9 -0.7 6.5 74 2.1 SW 57 80 31 43 1011.3 1011.3 0.0
07/06:55am 11.1 -0.5 6.0 71 2.4 SSW 56 69 30 37 1011.3 1011.3 0.0
07/06:36am 12.9 4.4 7.1 68 2.8 S 41 61 22 33 1010.9 1010.9 0.0
07/06:30am 13.4 5.6 8.3 71 2.5 S 39 48 21 26 1011.0 1011.0 0.0
07/06:20am 13.6 6.7 8.9 73 2.4 S 35 56 19 30 1010.8 1010.8 0.0
07/06:00am 13.9 8.4 9.3 74 2.4 S 28 35 15 19 1010.8 1010.8 0.0
07/05:30am 15.0 11.1 5.5 53 4.5 W 15 20 8 11 1010.7 1010.7 0.0
07/05:00am 15.2 10.6 5.7 53 4.6 WNW 19 24 10 13 1010.5 1010.5 0.0
07/04:30am 15.1 9.6 5.9 54 4.4 WNW 24 32 13 17 1010.4 1010.4 0.0
07/04:00am 15.1 8.7 5.3 52 4.7 WNW 28 37 15 20 1010.3 1010.3 0.0
07/03:30am 15.2 9.2 5.4 52 4.7 WNW 26 35 14 19 1010.4 1010.4 0.0
07/03:00am 15.0 9.0 5.2 52 4.6 WNW 26 33 14 18 1010.3 1010.3 0.0
07/02:30am 14.6 7.7 4.6 51 4.7 W 30 37 16 20 1010.9 1010.9 0.0
07/02:00am 14.8 9.5 4.8 51 4.7 W 22 30 12 16 1011.1 1011.1 0.0
07/01:30am 15.0 10.2 5.5 53 4.5 W 20 26 11 14 1011.1 1011.1 0.0
07/01:00am 15.7 10.1 5.3 50 5.0 W 24 35 13 19 1011.0 1011.0 0.0
07/12:30am 16.1 11.1 6.3 52 4.8 WNW 22 32 12 17 1011.1 1011.1 0.0
07/12:00am 16.0 11.3 7.7 58 4.2 WNW 22 28 12 15 1011.3 1011.3 0.0
 
Date/Time
EST
Temp
°C
App
Temp
°C
Dew
Point
°C
Rel
Hum
%
Delta-T
°C
Wind Press
QNH
hPa
Press
MSL
hPa
Rain since
9am
mm
Dir  Spd
km/h
Gust
km/h
Spd
kts
Gust
kts
06/11:30pm 16.3 12.2 8.5 60 4.0 WNW 20 26 11 14 1011.4 1011.4 0.0
06/11:00pm 16.0 11.3 9.2 64 3.5 WNW 24 33 13 18 1011.5 1011.5 0.0
06/10:30pm 15.7 14.2 11.9 78 2.1 NW 11 15 6 8 1012.0 1012.0 0.0
06/10:00pm 15.9 14.4 10.4 70 2.9 NNW 9 11 5 6 1012.6 1012.6 0.0
06/09:30pm 16.2 13.9 10.3 68 3.1 NW 13 15 7 8 1012.7 1012.7 0.0
06/09:00pm 16.9 13.7 11.2 69 3.1 NW 19 24 10 13 1013.1 1013.0 0.0
06/08:30pm 17.9 12.7 10.3 61 4.1 NNW 28 35 15 19 1012.9 1012.9 0.0
06/08:00pm 18.0 13.2 11.8 67 3.4 N 28 35 15 19 1012.8 1012.8 0.0
06/07:30pm 18.6 13.0 12.1 66 3.6 N 33 44 18 24 1013.1 1013.0 0.0
06/07:00pm 18.8 13.6 14.5 76 2.5 N 35 48 19 26 1013.3 1013.2 0.0
06/06:30pm 19.0 13.9 14.7 76 2.5 N 35 44 19 24 1013.4 1013.3 0.0

Other formats

Comma delimited format used in spreadsheet applications
http://www.bom.gov.au/fwo/IDN60801/IDN60801.94939.axf

JavaScript Object Notation format (JSON) in row-major order
http://www.bom.gov.au/fwo/IDN60801/IDN60801.94939.json

Data quality

Most of these data are generated automatically and are frequently updated. Quality checks on data are not normally performed. It is possible for incorrect values to appear. Refer to information at About Latest Weather Observations and please check the disclaimer before using these data.